createdAt,value
2022-12-01T00:00:00.356Z,101983
2022-12-01T00:01:00.317Z,101991
2022-12-01T00:02:00.575Z,101991
2022-12-01T00:03:00.439Z,101991
2022-12-01T00:04:00.307Z,101991
2022-12-01T00:05:00.277Z,101991
2022-12-01T00:06:01.720Z,101993
2022-12-01T00:07:00.265Z,101993
2022-12-01T00:08:00.787Z,101993
2022-12-01T00:09:00.257Z,101993
2022-12-01T00:10:00.268Z,101993
2022-12-01T00:11:04.931Z,101987
2022-12-01T00:12:00.253Z,101987
2022-12-01T00:13:02.923Z,101987
2022-12-01T00:14:00.369Z,101987
2022-12-01T00:15:00.344Z,101987
2022-12-01T00:16:10.219Z,101990
2022-12-01T00:17:00.353Z,101990
2022-12-01T00:18:01.057Z,101990
2022-12-01T00:19:00.409Z,101990
2022-12-01T00:20:00.323Z,101990
2022-12-01T00:21:04.055Z,101986
2022-12-01T00:22:00.273Z,101986
2022-12-01T00:23:00.516Z,101986
2022-12-01T00:24:00.248Z,101986
2022-12-01T00:25:00.333Z,101986
2022-12-01T00:26:02.718Z,101985
2022-12-01T00:27:00.233Z,101985
2022-12-01T00:28:00.276Z,101985
2022-12-01T00:29:00.279Z,101985
2022-12-01T00:30:00.276Z,101985
2022-12-01T00:31:00.322Z,101982
2022-12-01T00:32:00.286Z,101982
2022-12-01T00:33:00.250Z,101982
2022-12-01T00:34:00.613Z,101982
2022-12-01T00:35:00.386Z,101982
2022-12-01T00:36:00.672Z,101976
2022-12-01T00:37:00.256Z,101976
2022-12-01T00:38:00.249Z,101976
2022-12-01T00:39:00.250Z,101976
2022-12-01T00:40:00.542Z,101976
2022-12-01T00:41:08.943Z,101978
2022-12-01T00:42:00.236Z,101978
2022-12-01T00:43:00.239Z,101978
2022-12-01T00:44:00.235Z,101978
2022-12-01T00:45:00.256Z,101978
2022-12-01T00:46:00.364Z,101974
2022-12-01T00:47:00.288Z,101974
2022-12-01T00:48:00.241Z,101974
2022-12-01T00:49:00.339Z,101974
2022-12-01T00:50:00.265Z,101974
2022-12-01T00:51:00.643Z,101980
2022-12-01T00:52:00.257Z,101980
2022-12-01T00:53:04.359Z,101980
2022-12-01T00:54:00.252Z,101980
2022-12-01T00:55:00.248Z,101980
2022-12-01T00:56:00.395Z,101981
2022-12-01T00:57:00.301Z,101981
2022-12-01T00:58:00.282Z,101981
2022-12-01T00:59:00.258Z,101981
2022-12-01T01:00:00.344Z,101981
2022-12-01T01:01:01.021Z,101977
2022-12-01T01:02:00.819Z,101977
2022-12-01T01:03:00.480Z,101977
2022-12-01T01:04:00.275Z,101977
2022-12-01T01:05:00.242Z,101977
2022-12-01T01:06:04.566Z,101973
2022-12-01T01:07:00.261Z,101973
2022-12-01T01:08:00.310Z,101973
2022-12-01T01:09:00.301Z,101973
2022-12-01T01:10:00.423Z,101973
2022-12-01T01:11:00.279Z,101976
2022-12-01T01:12:00.259Z,101976
2022-12-01T01:13:00.264Z,101976
2022-12-01T01:14:00.514Z,101976
2022-12-01T01:15:00.289Z,101976
2022-12-01T01:16:01.725Z,101979
2022-12-01T01:17:00.423Z,101979
2022-12-01T01:18:00.415Z,101979
2022-12-01T01:19:00.239Z,101979
2022-12-01T01:20:00.258Z,101979
2022-12-01T01:21:01.773Z,101984
2022-12-01T01:22:00.234Z,101984
2022-12-01T01:23:00.277Z,101984
2022-12-01T01:24:00.248Z,101984
2022-12-01T01:25:00.414Z,101984
2022-12-01T01:26:02.549Z,101989
2022-12-01T01:27:00.271Z,101989
2022-12-01T01:28:00.237Z,101989
2022-12-01T01:29:00.985Z,101989
2022-12-01T01:30:00.237Z,101989
2022-12-01T01:31:03.942Z,101993
2022-12-01T01:32:00.279Z,101993
2022-12-01T01:33:00.254Z,101993
2022-12-01T01:34:00.362Z,101993
2022-12-01T01:35:00.255Z,101993
2022-12-01T01:36:00.816Z,102002
2022-12-01T01:37:00.260Z,102002
2022-12-01T01:38:00.271Z,102002
2022-12-01T01:39:00.517Z,102002
2022-12-01T01:40:00.308Z,102002
2022-12-01T01:41:02.543Z,102008
2022-12-01T01:42:00.223Z,102008
2022-12-01T01:43:00.254Z,102008
2022-12-01T01:44:01.451Z,102008
2022-12-01T01:45:00.268Z,102008
2022-12-01T01:46:00.304Z,102009
2022-12-01T01:47:00.314Z,102009
2022-12-01T01:48:00.411Z,102009
2022-12-01T01:49:01.707Z,102009
2022-12-01T01:50:01.824Z,102009
2022-12-01T01:51:00.680Z,102010
2022-12-01T01:52:01.985Z,102010
2022-12-01T01:53:01.740Z,102010
2022-12-01T01:54:03.268Z,102010
2022-12-01T01:55:00.354Z,102010
2022-12-01T01:56:01.713Z,102013
2022-12-01T01:57:01.076Z,102013
2022-12-01T01:58:01.709Z,102013
2022-12-01T01:59:00.344Z,102013
2022-12-01T02:00:02.881Z,102013
2022-12-01T02:01:00.300Z,102011
2022-12-01T02:02:02.618Z,102011
2022-12-01T02:03:01.349Z,102011
2022-12-01T02:04:00.555Z,102011
2022-12-01T02:05:01.396Z,102011
2022-12-01T02:06:04.789Z,102008
2022-12-01T02:07:00.362Z,102008
2022-12-01T02:08:01.014Z,102008
2022-12-01T02:09:00.232Z,102008
2022-12-01T02:10:00.253Z,102008
2022-12-01T02:11:07.769Z,102011
2022-12-01T02:12:01.291Z,102011
2022-12-01T02:13:07.611Z,102011
2022-12-01T02:14:08.598Z,102011
2022-12-01T02:15:01.340Z,102011
2022-12-01T02:16:00.212Z,102007
2022-12-01T02:17:00.335Z,102007
2022-12-01T02:18:10.160Z,102007
2022-12-01T02:19:10.183Z,102007
2022-12-01T02:20:07.710Z,102007
2022-12-01T02:21:10.157Z,101996
2022-12-01T02:22:10.150Z,101996
2022-12-01T02:23:10.175Z,101996
2022-12-01T02:24:03.550Z,101996
2022-12-01T02:25:10.177Z,101996
2022-12-01T02:26:07.662Z,101983
2022-12-01T02:27:04.119Z,101983
2022-12-01T02:28:10.168Z,101983
2022-12-01T02:29:10.150Z,101983
2022-12-01T02:30:04.698Z,101983
2022-12-01T02:31:03.452Z,101988
2022-12-01T02:32:01.233Z,101988
2022-12-01T02:33:10.165Z,101988
2022-12-01T02:34:08.160Z,101988
2022-12-01T02:35:10.167Z,101988
2022-12-01T02:36:03.793Z,101987
2022-12-01T02:37:09.596Z,101987
2022-12-01T02:38:07.733Z,101987
2022-12-01T02:39:03.526Z,101987
2022-12-01T02:40:04.875Z,101987
2022-12-01T02:41:01.240Z,101990
2022-12-01T02:42:03.558Z,101990
2022-12-01T02:43:02.508Z,101990
2022-12-01T02:44:05.050Z,101990
2022-12-01T02:45:03.101Z,101990
2022-12-01T02:46:10.241Z,101976
2022-12-01T02:47:07.691Z,101976
2022-12-01T02:48:01.271Z,101976
2022-12-01T02:49:03.803Z,101976
2022-12-01T02:50:01.160Z,101976
2022-12-01T02:51:05.216Z,101974
2022-12-01T02:52:01.907Z,101974
2022-12-01T02:53:02.061Z,101974
2022-12-01T02:54:01.220Z,101974
2022-12-01T02:55:00.245Z,101974
2022-12-01T02:56:00.283Z,101975
2022-12-01T02:57:00.266Z,101975
2022-12-01T02:58:00.356Z,101975
2022-12-01T02:59:00.248Z,101975
2022-12-01T03:00:01.032Z,101975
2022-12-01T03:01:06.056Z,101968
2022-12-01T03:02:01.278Z,101968
2022-12-01T03:03:10.172Z,101968
2022-12-01T03:04:10.158Z,101968
2022-12-01T03:05:04.234Z,101968
2022-12-01T03:06:10.175Z,101967
2022-12-01T03:07:07.746Z,101967
2022-12-01T03:08:00.291Z,101967
2022-12-01T03:09:03.505Z,101967
2022-12-01T03:10:07.756Z,101967
2022-12-01T03:11:00.989Z,101956
2022-12-01T03:12:01.232Z,101956
2022-12-01T03:13:01.295Z,101956
2022-12-01T03:14:01.232Z,101956
2022-12-01T03:15:03.523Z,101956
2022-12-01T03:16:10.266Z,101967
2022-12-01T03:17:03.680Z,101967
2022-12-01T03:18:05.909Z,101967
2022-12-01T03:19:10.206Z,101967
2022-12-01T03:20:05.774Z,101967
2022-12-01T03:21:05.788Z,101970
2022-12-01T03:22:05.993Z,101970
2022-12-01T03:23:05.966Z,101970
2022-12-01T03:24:02.749Z,101970
2022-12-01T03:25:01.290Z,101970
2022-12-01T03:26:02.459Z,101975
2022-12-01T03:27:01.175Z,101975
2022-12-01T03:28:20.731Z,101975
2022-12-01T03:29:04.438Z,101975
2022-12-01T03:30:01.140Z,101975
2022-12-01T03:31:03.212Z,101979
2022-12-01T03:32:03.863Z,101979
2022-12-01T03:33:02.806Z,101979
2022-12-01T03:34:06.938Z,101979
2022-12-01T03:35:03.957Z,101979
2022-12-01T03:36:10.179Z,101989
2022-12-01T03:37:03.157Z,101989
2022-12-01T03:38:04.621Z,101989
2022-12-01T03:39:03.151Z,101989
2022-12-01T03:40:02.111Z,101989
2022-12-01T03:41:05.008Z,101992
2022-12-01T03:42:06.112Z,101992
2022-12-01T03:43:03.489Z,101992
2022-12-01T03:44:06.730Z,101992
2022-12-01T03:45:03.554Z,101992
2022-12-01T03:46:00.324Z,101999
2022-12-01T03:47:03.192Z,101999
2022-12-01T03:48:00.404Z,101999
2022-12-01T03:49:00.234Z,101999
2022-12-01T03:50:01.275Z,101999
2022-12-01T03:51:10.176Z,101999
2022-12-01T03:52:01.235Z,101999
2022-12-01T03:53:10.171Z,101999
2022-12-01T03:54:01.240Z,101999
2022-12-01T03:55:07.012Z,101999
2022-12-01T03:56:01.682Z,102005
2022-12-01T03:57:03.954Z,102005
2022-12-01T03:58:03.031Z,102005
2022-12-01T03:59:02.071Z,102005
2022-12-01T04:00:00.816Z,102005
2022-12-01T04:01:02.572Z,102012
2022-12-01T04:02:00.620Z,102012
2022-12-01T04:03:01.587Z,102012
2022-12-01T04:04:04.824Z,102012
2022-12-01T04:05:00.245Z,102012
2022-12-01T04:06:00.321Z,102013
2022-12-01T04:07:00.319Z,102013
2022-12-01T04:08:00.421Z,102013
2022-12-01T04:09:00.414Z,102013
2022-12-01T04:10:00.286Z,102013
2022-12-01T04:11:00.231Z,102016
2022-12-01T04:12:00.267Z,102016
2022-12-01T04:13:04.895Z,102016
2022-12-01T04:14:03.558Z,102016
2022-12-01T04:15:09.046Z,102016
2022-12-01T04:16:01.156Z,102027
2022-12-01T04:17:00.255Z,102027
2022-12-01T04:18:00.229Z,102027
2022-12-01T04:19:00.235Z,102027
2022-12-01T04:20:00.270Z,102027
2022-12-01T04:21:00.236Z,102023
2022-12-01T04:22:00.238Z,102023
2022-12-01T04:23:00.269Z,102023
2022-12-01T04:24:00.277Z,102023
2022-12-01T04:25:00.225Z,102023
2022-12-01T04:26:01.306Z,102021
2022-12-01T04:27:00.234Z,102021
2022-12-01T04:28:00.232Z,102021
2022-12-01T04:29:03.455Z,102021
2022-12-01T04:30:00.241Z,102021
2022-12-01T04:31:00.324Z,102021
2022-12-01T04:32:00.267Z,102021
2022-12-01T04:33:00.227Z,102021
2022-12-01T04:34:00.351Z,102021
2022-12-01T04:35:00.259Z,102021
2022-12-01T04:36:00.367Z,102024
2022-12-01T04:37:00.258Z,102024
2022-12-01T04:38:00.242Z,102024
2022-12-01T04:39:01.106Z,102024
2022-12-01T04:40:00.322Z,102024
2022-12-01T04:41:00.261Z,102020
2022-12-01T04:42:00.629Z,102020
2022-12-01T04:43:00.230Z,102020
2022-12-01T04:44:00.302Z,102020
2022-12-01T04:45:00.533Z,102020
2022-12-01T04:46:00.787Z,102033
2022-12-01T04:47:00.359Z,102033
2022-12-01T04:48:00.230Z,102033
2022-12-01T04:49:00.277Z,102033
2022-12-01T04:50:00.250Z,102033
2022-12-01T04:51:00.616Z,102038
2022-12-01T04:52:00.275Z,102038
2022-12-01T04:53:00.246Z,102038
2022-12-01T04:54:00.976Z,102038
2022-12-01T04:55:00.265Z,102038
2022-12-01T04:56:00.310Z,102042
2022-12-01T04:57:00.290Z,102042
2022-12-01T04:58:00.252Z,102042
2022-12-01T04:59:00.229Z,102042
2022-12-01T05:00:00.386Z,102042
2022-12-01T05:01:01.111Z,102044
2022-12-01T05:02:00.419Z,102044
2022-12-01T05:03:00.369Z,102044
2022-12-01T05:04:00.256Z,102044
2022-12-01T05:05:00.336Z,102044
2022-12-01T05:06:02.504Z,102057
2022-12-01T05:07:00.225Z,102057
2022-12-01T05:08:00.404Z,102057
2022-12-01T05:09:00.632Z,102057
2022-12-01T05:10:00.364Z,102057
2022-12-01T05:11:00.611Z,102052
2022-12-01T05:12:00.323Z,102052
2022-12-01T05:13:00.363Z,102052
2022-12-01T05:14:00.336Z,102052
2022-12-01T05:15:00.240Z,102052
2022-12-01T05:16:10.232Z,102064
2022-12-01T05:17:00.239Z,102064
2022-12-01T05:18:00.285Z,102064
2022-12-01T05:19:01.409Z,102064
2022-12-01T05:20:00.244Z,102064
2022-12-01T05:21:00.608Z,102064
2022-12-01T05:22:00.237Z,102064
2022-12-01T05:23:06.060Z,102064
2022-12-01T05:24:00.270Z,102064
2022-12-01T05:25:00.374Z,102064
2022-12-01T05:26:00.847Z,102066
2022-12-01T05:27:00.283Z,102066
2022-12-01T05:28:00.233Z,102066
2022-12-01T05:29:00.255Z,102066
2022-12-01T05:30:00.275Z,102066
2022-12-01T05:31:00.262Z,102074
2022-12-01T05:32:00.416Z,102074
2022-12-01T05:33:00.227Z,102074
2022-12-01T05:34:00.336Z,102074
2022-12-01T05:35:00.362Z,102074
2022-12-01T05:36:00.275Z,102075
2022-12-01T05:37:00.242Z,102075
2022-12-01T05:38:04.650Z,102075
2022-12-01T05:39:00.251Z,102075
2022-12-01T05:40:02.256Z,102075
2022-12-01T05:41:00.305Z,102063
2022-12-01T05:42:00.260Z,102063
2022-12-01T05:43:00.463Z,102063
2022-12-01T05:44:00.250Z,102063
2022-12-01T05:45:00.278Z,102063
2022-12-01T05:46:00.644Z,102061
2022-12-01T05:47:00.234Z,102061
2022-12-01T05:48:00.909Z,102061
2022-12-01T05:49:00.226Z,102061
2022-12-01T05:50:05.182Z,102061
2022-12-01T05:51:06.468Z,102056
2022-12-01T05:52:00.228Z,102056
2022-12-01T05:53:00.228Z,102056
2022-12-01T05:54:00.541Z,102056
2022-12-01T05:55:00.569Z,102056
2022-12-01T05:56:00.277Z,102053
2022-12-01T05:57:00.250Z,102053
2022-12-01T05:58:00.775Z,102053
2022-12-01T05:59:00.343Z,102053
2022-12-01T06:00:00.460Z,102053
2022-12-01T06:01:00.553Z,102041
2022-12-01T06:02:00.251Z,102041
2022-12-01T06:03:00.241Z,102041
2022-12-01T06:04:00.328Z,102041
2022-12-01T06:05:00.270Z,102041
2022-12-01T06:06:00.281Z,102039
2022-12-01T06:07:00.294Z,102039
2022-12-01T06:08:00.516Z,102039
2022-12-01T06:09:00.283Z,102039
2022-12-01T06:10:00.747Z,102039
2022-12-01T06:11:00.386Z,102031
2022-12-01T06:12:00.235Z,102031
2022-12-01T06:13:00.318Z,102031
2022-12-01T06:14:00.283Z,102031
2022-12-01T06:15:00.276Z,102031
2022-12-01T06:16:01.291Z,102027
2022-12-01T06:17:00.349Z,102027
2022-12-01T06:18:00.353Z,102027
2022-12-01T06:19:00.308Z,102027
2022-12-01T06:20:00.387Z,102027
2022-12-01T06:21:00.548Z,102031
2022-12-01T06:22:00.248Z,102031
2022-12-01T06:23:00.236Z,102031
2022-12-01T06:24:00.250Z,102031
2022-12-01T06:25:00.431Z,102031
2022-12-01T06:26:00.251Z,102038
2022-12-01T06:27:00.248Z,102038
2022-12-01T06:28:00.266Z,102038
2022-12-01T06:29:00.308Z,102038
2022-12-01T06:30:00.418Z,102038
2022-12-01T06:31:03.491Z,102049
2022-12-01T06:32:00.295Z,102049
2022-12-01T06:33:00.275Z,102049
2022-12-01T06:34:00.254Z,102049
2022-12-01T06:35:00.262Z,102049
2022-12-01T06:36:01.433Z,102046
2022-12-01T06:37:00.224Z,102046
2022-12-01T06:38:00.237Z,102046
2022-12-01T06:39:00.250Z,102046
2022-12-01T06:40:00.283Z,102046
2022-12-01T06:41:00.606Z,102052
2022-12-01T06:42:00.429Z,102052
2022-12-01T06:43:00.818Z,102052
2022-12-01T06:44:00.242Z,102052
2022-12-01T06:45:00.241Z,102052
2022-12-01T06:46:02.594Z,102050
2022-12-01T06:47:00.241Z,102050
2022-12-01T06:48:00.241Z,102050
2022-12-01T06:49:00.229Z,102050
2022-12-01T06:50:00.267Z,102050
2022-12-01T06:51:00.715Z,102052
2022-12-01T06:52:01.142Z,102052
2022-12-01T06:53:00.231Z,102052
2022-12-01T06:54:05.490Z,102052
2022-12-01T06:55:00.293Z,102052
2022-12-01T06:56:00.966Z,102051
2022-12-01T06:57:00.224Z,102051
2022-12-01T06:58:00.234Z,102051
2022-12-01T06:59:00.227Z,102051
2022-12-01T07:00:00.358Z,102051
2022-12-01T07:01:06.187Z,102051
2022-12-01T07:02:00.264Z,102051
2022-12-01T07:03:00.364Z,102051
2022-12-01T07:04:00.234Z,102051
2022-12-01T07:05:00.267Z,102051
2022-12-01T07:06:00.786Z,102049
2022-12-01T07:07:00.235Z,102049
2022-12-01T07:08:00.348Z,102049
2022-12-01T07:09:00.231Z,102049
2022-12-01T07:10:00.322Z,102049
2022-12-01T07:11:01.440Z,102053
2022-12-01T07:12:00.355Z,102053
2022-12-01T07:13:00.225Z,102053
2022-12-01T07:14:00.257Z,102053
2022-12-01T07:15:00.236Z,102053
2022-12-01T07:16:01.090Z,102059
2022-12-01T07:17:00.368Z,102059
2022-12-01T07:18:00.234Z,102059
2022-12-01T07:19:00.226Z,102059
2022-12-01T07:20:00.272Z,102059
2022-12-01T07:21:00.644Z,102062
2022-12-01T07:22:00.272Z,102062
2022-12-01T07:23:00.279Z,102062
2022-12-01T07:24:00.256Z,102062
2022-12-01T07:25:00.323Z,102062
2022-12-01T07:26:01.115Z,102067
2022-12-01T07:27:00.322Z,102067
2022-12-01T07:28:00.254Z,102067
2022-12-01T07:29:00.224Z,102067
2022-12-01T07:30:00.277Z,102067
2022-12-01T07:31:02.554Z,102072
2022-12-01T07:32:00.314Z,102072
2022-12-01T07:33:00.249Z,102072
2022-12-01T07:34:00.263Z,102072
2022-12-01T07:35:00.252Z,102072
2022-12-01T07:36:00.537Z,102075
2022-12-01T07:37:00.273Z,102075
2022-12-01T07:38:00.263Z,102075
2022-12-01T07:39:03.443Z,102075
2022-12-01T07:40:00.249Z,102075
2022-12-01T07:41:00.974Z,102078
2022-12-01T07:42:00.259Z,102078
2022-12-01T07:43:00.317Z,102078
2022-12-01T07:44:00.590Z,102078
2022-12-01T07:45:00.413Z,102078
2022-12-01T07:46:04.654Z,102088
2022-12-01T07:47:00.238Z,102088
2022-12-01T07:48:02.031Z,102088
2022-12-01T07:49:00.233Z,102088
2022-12-01T07:50:00.254Z,102088
2022-12-01T07:51:00.601Z,102092
2022-12-01T07:52:00.246Z,102092
2022-12-01T07:53:00.229Z,102092
2022-12-01T07:54:01.234Z,102092
2022-12-01T07:55:00.356Z,102092
2022-12-01T07:56:05.531Z,102094
2022-12-01T07:57:00.284Z,102094
2022-12-01T07:58:00.226Z,102094
2022-12-01T07:59:00.229Z,102094
2022-12-01T08:00:00.374Z,102094
2022-12-01T08:01:04.882Z,102090
2022-12-01T08:02:00.383Z,102090
2022-12-01T08:03:00.318Z,102090
2022-12-01T08:04:00.221Z,102090
2022-12-01T08:05:00.261Z,102090
2022-12-01T08:06:00.826Z,102093
2022-12-01T08:07:00.317Z,102093
2022-12-01T08:08:00.489Z,102093
2022-12-01T08:09:00.252Z,102093
2022-12-01T08:10:00.246Z,102093
2022-12-01T08:11:01.306Z,102102
2022-12-01T08:12:00.227Z,102102
2022-12-01T08:13:00.237Z,102102
2022-12-01T08:14:00.361Z,102102
2022-12-01T08:15:00.241Z,102102
2022-12-01T08:16:04.151Z,102104
2022-12-01T08:17:00.435Z,102104
2022-12-01T08:18:00.393Z,102104
2022-12-01T08:19:00.319Z,102104
2022-12-01T08:20:00.236Z,102104
2022-12-01T08:21:00.252Z,102114
2022-12-01T08:22:00.244Z,102114
2022-12-01T08:23:00.923Z,102114
2022-12-01T08:24:00.256Z,102114
2022-12-01T08:25:00.234Z,102114
2022-12-01T08:26:01.214Z,102113
2022-12-01T08:27:00.252Z,102113
2022-12-01T08:28:00.612Z,102113
2022-12-01T08:29:00.336Z,102113
2022-12-01T08:30:00.443Z,102113
2022-12-01T08:31:06.137Z,102119
2022-12-01T08:32:00.473Z,102119
2022-12-01T08:33:00.239Z,102119
2022-12-01T08:34:03.356Z,102119
2022-12-01T08:35:00.479Z,102119
2022-12-01T08:36:00.887Z,102134
2022-12-01T08:37:00.246Z,102134
2022-12-01T08:38:00.244Z,102134
2022-12-01T08:39:00.423Z,102134
2022-12-01T08:40:00.299Z,102134
2022-12-01T08:41:00.983Z,102125
2022-12-01T08:42:00.228Z,102125
2022-12-01T08:43:00.254Z,102125
2022-12-01T08:44:01.335Z,102125
2022-12-01T08:45:00.341Z,102125
2022-12-01T08:46:00.780Z,102121
2022-12-01T08:47:00.306Z,102121
2022-12-01T08:48:00.230Z,102121
2022-12-01T08:49:00.959Z,102121
2022-12-01T08:50:00.224Z,102121
2022-12-01T08:51:04.512Z,102130
2022-12-01T08:52:00.244Z,102130
2022-12-01T08:53:00.225Z,102130
2022-12-01T08:54:00.293Z,102130
2022-12-01T08:55:00.618Z,102130
2022-12-01T08:56:01.379Z,102131
2022-12-01T08:57:00.238Z,102131
2022-12-01T08:58:00.289Z,102131
2022-12-01T08:59:00.655Z,102131
2022-12-01T09:00:00.386Z,102131
2022-12-01T09:01:01.672Z,102132
2022-12-01T09:02:05.376Z,102132
2022-12-01T09:03:00.340Z,102132
2022-12-01T09:04:01.032Z,102132
2022-12-01T09:05:00.252Z,102132
2022-12-01T09:06:01.540Z,102132
2022-12-01T09:07:01.902Z,102132
2022-12-01T09:08:00.390Z,102132
2022-12-01T09:09:00.234Z,102132
2022-12-01T09:10:00.264Z,102132
2022-12-01T09:11:02.011Z,102122
2022-12-01T09:12:00.255Z,102122
2022-12-01T09:13:00.241Z,102122
2022-12-01T09:14:00.297Z,102122
2022-12-01T09:15:00.245Z,102122
2022-12-01T09:16:03.169Z,102132
2022-12-01T09:17:00.241Z,102132
2022-12-01T09:18:00.232Z,102132
2022-12-01T09:19:00.241Z,102132
2022-12-01T09:20:00.234Z,102132
2022-12-01T09:21:08.249Z,102142
2022-12-01T09:22:00.540Z,102142
2022-12-01T09:23:00.298Z,102142
2022-12-01T09:24:00.606Z,102142
2022-12-01T09:25:00.250Z,102142
2022-12-01T09:26:00.253Z,102152
2022-12-01T09:27:00.562Z,102152
2022-12-01T09:28:00.244Z,102152
2022-12-01T09:29:02.077Z,102152
2022-12-01T09:30:00.235Z,102152
2022-12-01T09:31:04.120Z,102160
2022-12-01T09:32:00.415Z,102160
2022-12-01T09:33:00.255Z,102160
2022-12-01T09:34:02.465Z,102160
2022-12-01T09:35:00.255Z,102160
2022-12-01T09:36:01.010Z,102166
2022-12-01T09:37:00.303Z,102166
2022-12-01T09:38:00.316Z,102166
2022-12-01T09:39:00.655Z,102166
2022-12-01T09:40:00.250Z,102166
2022-12-01T09:41:03.345Z,102172
2022-12-01T09:42:10.168Z,102172
2022-12-01T09:43:01.712Z,102172
2022-12-01T09:44:04.348Z,102172
2022-12-01T09:45:01.359Z,102172
2022-12-01T09:46:03.426Z,102168
2022-12-01T09:47:03.580Z,102168
2022-12-01T09:48:01.984Z,102168
2022-12-01T09:49:01.528Z,102168
2022-12-01T09:50:00.265Z,102168
2022-12-01T09:51:00.331Z,102179
2022-12-01T09:52:00.339Z,102179
2022-12-01T09:53:02.754Z,102179
2022-12-01T09:54:00.802Z,102179
2022-12-01T09:55:00.537Z,102179
2022-12-01T09:56:07.151Z,102181
2022-12-01T09:57:00.330Z,102181
2022-12-01T09:58:01.297Z,102181
2022-12-01T09:59:01.289Z,102181
2022-12-01T10:00:01.806Z,102181
2022-12-01T10:01:00.418Z,102174
2022-12-01T10:02:01.292Z,102174
2022-12-01T10:03:00.217Z,102174
2022-12-01T10:04:07.039Z,102174
2022-12-01T10:05:03.363Z,102174
2022-12-01T10:06:27.736Z,102177
2022-12-01T10:07:03.342Z,102177
2022-12-01T10:08:04.081Z,102177
2022-12-01T10:09:10.166Z,102177
2022-12-01T10:10:03.952Z,102177
2022-12-01T10:11:05.684Z,102169
2022-12-01T10:12:09.265Z,102169
2022-12-01T10:13:00.376Z,102169
2022-12-01T10:14:00.611Z,102169
2022-12-01T10:15:10.213Z,102169
2022-12-01T10:16:06.604Z,102165
2022-12-01T10:17:10.191Z,102165
2022-12-01T10:18:10.148Z,102165
2022-12-01T10:19:06.742Z,102165
2022-12-01T10:20:04.980Z,102165
2022-12-01T10:21:10.189Z,102160
2022-12-01T10:22:01.237Z,102160
2022-12-01T10:23:08.944Z,102160
2022-12-01T10:24:01.247Z,102160
2022-12-01T10:25:06.442Z,102160
2022-12-01T10:26:06.230Z,102151
2022-12-01T10:27:10.159Z,102151
2022-12-01T10:28:10.148Z,102151
2022-12-01T10:29:03.493Z,102151
2022-12-01T10:30:07.930Z,102151
2022-12-01T10:31:03.899Z,102148
2022-12-01T10:32:04.068Z,102148
2022-12-01T10:33:05.469Z,102148
2022-12-01T10:34:05.021Z,102148
2022-12-01T10:35:00.291Z,102148
2022-12-01T10:36:00.494Z,102138
2022-12-01T10:37:00.470Z,102138
2022-12-01T10:38:01.591Z,102138
2022-12-01T10:39:01.225Z,102138
2022-12-01T10:40:01.089Z,102138
2022-12-01T10:41:01.126Z,102130
2022-12-01T10:42:04.333Z,102130
2022-12-01T10:43:00.963Z,102130
2022-12-01T10:44:02.092Z,102130
2022-12-01T10:45:01.609Z,102130
2022-12-01T10:46:04.516Z,102126
2022-12-01T10:47:01.114Z,102126
2022-12-01T10:48:10.176Z,102126
2022-12-01T10:49:06.516Z,102126
2022-12-01T10:50:01.966Z,102126
2022-12-01T10:51:10.184Z,102123
2022-12-01T10:52:00.246Z,102123
2022-12-01T10:53:00.713Z,102123
2022-12-01T10:54:06.101Z,102123
2022-12-01T10:55:00.738Z,102123
2022-12-01T10:56:03.949Z,102124
2022-12-01T10:57:00.722Z,102124
2022-12-01T10:58:09.115Z,102124
2022-12-01T10:59:10.144Z,102124
2022-12-01T11:00:00.314Z,102124
2022-12-01T11:01:02.704Z,102122
2022-12-01T11:02:01.073Z,102122
2022-12-01T11:03:00.986Z,102122
2022-12-01T11:04:07.526Z,102122
2022-12-01T11:05:01.636Z,102122
2022-12-01T11:06:01.318Z,102113
2022-12-01T11:07:00.698Z,102113
2022-12-01T11:08:00.367Z,102113
2022-12-01T11:09:02.520Z,102113
2022-12-01T11:10:00.232Z,102113
2022-12-01T11:11:00.643Z,102112
2022-12-01T11:12:01.470Z,102112
2022-12-01T11:13:10.142Z,102112
2022-12-01T11:14:01.779Z,102112
2022-12-01T11:15:00.689Z,102112
2022-12-01T11:16:01.865Z,102106
2022-12-01T11:17:10.173Z,102106
2022-12-01T11:18:02.819Z,102106
2022-12-01T11:19:10.190Z,102106
2022-12-01T11:20:10.277Z,102106
2022-12-01T11:21:10.150Z,102097
2022-12-01T11:22:01.256Z,102097
2022-12-01T11:23:10.160Z,102097
2022-12-01T11:24:00.252Z,102097
2022-12-01T11:25:02.129Z,102097
2022-12-01T11:26:02.722Z,102100
2022-12-01T11:27:00.314Z,102100
2022-12-01T11:28:02.197Z,102100
2022-12-01T11:29:02.075Z,102100
2022-12-01T11:30:01.537Z,102100
2022-12-01T11:31:08.801Z,102097
2022-12-01T11:32:01.200Z,102097
2022-12-01T11:33:02.097Z,102097
2022-12-01T11:34:00.395Z,102097
2022-12-01T11:35:03.178Z,102097
2022-12-01T11:36:00.257Z,102091
2022-12-01T11:37:01.992Z,102091
2022-12-01T11:38:29.334Z,102091
2022-12-01T11:39:00.845Z,102091
2022-12-01T11:40:10.217Z,102091
2022-12-01T11:41:00.491Z,102085
2022-12-01T11:42:01.989Z,102085
2022-12-01T11:43:01.695Z,102085
2022-12-01T11:44:02.185Z,102085
2022-12-01T11:45:10.192Z,102085
2022-12-01T11:46:03.492Z,102079
2022-12-01T11:47:22.685Z,102079
2022-12-01T11:48:04.422Z,102079
2022-12-01T11:49:00.278Z,102079
2022-12-01T11:50:01.563Z,102079
2022-12-01T11:51:03.352Z,102079
2022-12-01T11:52:10.141Z,102079
2022-12-01T11:53:00.697Z,102079
2022-12-01T11:54:05.489Z,102079
2022-12-01T11:55:06.929Z,102079
2022-12-01T11:56:10.152Z,102080
2022-12-01T11:57:31.794Z,102080
2022-12-01T11:58:02.080Z,102080
2022-12-01T11:59:03.753Z,102080
2022-12-01T12:00:00.604Z,102080
2022-12-01T12:01:00.443Z,102078
2022-12-01T12:02:10.218Z,102078
2022-12-01T12:03:10.204Z,102078
2022-12-01T12:04:10.146Z,102078
2022-12-01T12:05:03.506Z,102078
2022-12-01T12:06:39.066Z,102076
2022-12-01T12:07:07.775Z,102076
2022-12-01T12:08:10.176Z,102076
2022-12-01T12:09:10.204Z,102076
2022-12-01T12:10:06.188Z,102076
2022-12-01T12:11:10.223Z,102062
2022-12-01T12:12:06.791Z,102062
2022-12-01T12:13:10.169Z,102062
2022-12-01T12:14:10.163Z,102062
2022-12-01T12:15:10.159Z,102062
2022-12-01T12:16:13.534Z,102054
2022-12-01T12:17:10.163Z,102054
2022-12-01T12:18:10.258Z,102054
2022-12-01T12:19:05.862Z,102054
2022-12-01T12:20:10.450Z,102054
2022-12-01T12:21:01.247Z,102053
2022-12-01T12:22:00.228Z,102053
2022-12-01T12:23:01.237Z,102053
2022-12-01T12:24:03.551Z,102053
2022-12-01T12:25:10.234Z,102053
2022-12-01T12:26:10.161Z,102054
2022-12-01T12:27:10.152Z,102054
2022-12-01T12:28:10.165Z,102054